sensor_id;sensor_type;location;lat;lon;timestamp;pressure;altitude;pressure_sealevel;temperature;humidity
77770;BME280;66961;51.482;9.160;2024-02-15T00:01:28;99470.50;;;9.61;100.00
77770;BME280;66961;51.482;9.160;2024-02-15T00:03:53;99465.22;;;9.61;100.00
77770;BME280;66961;51.482;9.160;2024-02-15T00:06:19;99464.22;;;9.62;100.00
77770;BME280;66961;51.482;9.160;2024-02-15T00:08:45;99470.84;;;9.67;100.00
77770;BME280;66961;51.482;9.160;2024-02-15T00:11:10;99462.59;;;9.70;100.00
77770;BME280;66961;51.482;9.160;2024-02-15T00:13:35;99461.41;;;9.72;100.00
77770;BME280;66961;51.482;9.160;2024-02-15T00:16:00;99465.72;;;9.73;100.00
77770;BME280;66961;51.482;9.160;2024-02-15T00:18:26;99458.94;;;9.71;100.00
77770;BME280;66961;51.482;9.160;2024-02-15T00:20:51;99457.63;;;9.75;100.00
77770;BME280;66961;51.482;9.160;2024-02-15T00:23:16;99462.09;;;9.74;100.00
77770;BME280;66961;51.482;9.160;2024-02-15T00:25:42;99460.94;;;9.77;100.00
77770;BME280;66961;51.482;9.160;2024-02-15T00:28:07;99449.34;;;9.78;100.00
77770;BME280;66961;51.482;9.160;2024-02-15T00:30:33;99449.34;;;9.78;100.00
77770;BME280;66961;51.482;9.160;2024-02-15T00:32:58;99460.78;;;9.78;100.00
77770;BME280;66961;51.482;9.160;2024-02-15T00:35:23;99459.94;;;9.78;100.00
77770;BME280;66961;51.482;9.160;2024-02-15T00:37:48;99464.06;;;9.80;100.00
77770;BME280;66961;51.482;9.160;2024-02-15T00:40:14;99461.59;;;9.79;100.00
77770;BME280;66961;51.482;9.160;2024-02-15T00:42:39;99466.72;;;9.80;100.00
77770;BME280;66961;51.482;9.160;2024-02-15T00:45:05;99461.25;;;9.82;100.00
77770;BME280;66961;51.482;9.160;2024-02-15T00:47:30;99462.59;;;9.86;100.00
77770;BME280;66961;51.482;9.160;2024-02-15T00:49:55;99457.13;;;9.87;100.00
77770;BME280;66961;51.482;9.160;2024-02-15T00:52:21;99458.59;;;9.90;100.00
77770;BME280;66961;51.482;9.160;2024-02-15T00:54:46;99470.00;;;9.90;100.00
77770;BME280;66961;51.482;9.160;2024-02-15T00:57:12;99469.19;;;9.90;100.00
77770;BME280;66961;51.482;9.160;2024-02-15T00:59:37;99460.09;;;9.84;100.00
77770;BME280;66961;51.482;9.160;2024-02-15T01:02:02;99465.53;;;9.91;100.00
77770;BME280;66961;51.482;9.160;2024-02-15T01:04:28;99472.00;;;9.88;100.00
77770;BME280;66961;51.482;9.160;2024-02-15T01:06:54;99471.34;;;9.86;100.00
77770;BME280;66961;51.482;9.160;2024-02-15T01:09:21;99468.38;;;9.81;100.00
77770;BME280;66961;51.482;9.160;2024-02-15T01:11:47;99478.47;;;9.86;100.00
77770;BME280;66961;51.482;9.160;2024-02-15T01:14:12;99471.69;;;9.83;100.00
77770;BME280;66961;51.482;9.160;2024-02-15T01:16:37;99471.53;;;9.85;100.00
77770;BME280;66961;51.482;9.160;2024-02-15T01:19:02;99473.50;;;9.83;100.00
77770;BME280;66961;51.482;9.160;2024-02-15T01:21:28;99467.06;;;9.85;100.00
77770;BME280;66961;51.482;9.160;2024-02-15T01:23:53;99468.72;;;9.86;100.00
77770;BME280;66961;51.482;9.160;2024-02-15T01:26:19;99471.00;;;9.89;100.00
77770;BME280;66961;51.482;9.160;2024-02-15T01:28:44;99463.22;;;9.88;100.00
77770;BME280;66961;51.482;9.160;2024-02-15T01:31:10;99466.69;;;9.88;100.00
77770;BME280;66961;51.482;9.160;2024-02-15T01:33:37;99468.53;;;9.88;100.00
77770;BME280;66961;51.482;9.160;2024-02-15T01:36:03;99466.91;;;9.87;100.00
77770;BME280;66961;51.482;9.160;2024-02-15T01:38:29;99465.56;;;9.83;100.00
77770;BME280;66961;51.482;9.160;2024-02-15T01:40:54;99467.38;;;9.90;100.00
77770;BME280;66961;51.482;9.160;2024-02-15T01:43:19;99465.06;;;9.87;100.00
77770;BME280;66961;51.482;9.160;2024-02-15T01:45:44;99467.19;;;9.92;100.00
77770;BME280;66961;51.482;9.160;2024-02-15T01:48:10;99455.94;;;9.90;100.00
77770;BME280;66961;51.482;9.160;2024-02-15T01:50:36;99456.59;;;9.92;100.00
77770;BME280;66961;51.482;9.160;2024-02-15T01:53:04;99456.44;;;9.93;100.00
77770;BME280;66961;51.482;9.160;2024-02-15T01:55:30;99459.59;;;9.89;100.00
77770;BME280;66961;51.482;9.160;2024-02-15T01:57:55;99448.38;;;9.87;100.00
77770;BME280;66961;51.482;9.160;2024-02-15T02:00:21;99451.19;;;9.85;100.00
77770;BME280;66961;51.482;9.160;2024-02-15T02:02:47;99457.13;;;9.87;100.00
77770;BME280;66961;51.482;9.160;2024-02-15T02:05:13;99452.00;;;9.86;100.00
77770;BME280;66961;51.482;9.160;2024-02-15T02:07:38;99458.75;;;9.88;100.00
77770;BME280;66961;51.482;9.160;2024-02-15T02:10:04;99453.81;;;9.85;100.00
77770;BME280;66961;51.482;9.160;2024-02-15T02:12:30;99454.81;;;9.84;100.00
77770;BME280;66961;51.482;9.160;2024-02-15T02:14:56;99451.34;;;9.84;100.00
77770;BME280;66961;51.482;9.160;2024-02-15T02:17:21;99451.19;;;9.85;100.00
77770;BME280;66961;51.482;9.160;2024-02-15T02:19:47;99463.22;;;9.88;100.00
77770;BME280;66961;51.482;9.160;2024-02-15T02:22:12;99455.13;;;9.89;100.00
77770;BME280;66961;51.482;9.160;2024-02-15T02:24:44;99460.25;;;9.91;100.00
77770;BME280;66961;51.482;9.160;2024-02-15T02:27:13;99451.66;;;9.89;100.00
77770;BME280;66961;51.482;9.160;2024-02-15T02:29:42;99448.38;;;9.87;100.00
77770;BME280;66961;51.482;9.160;2024-02-15T02:32:08;99454.28;;;9.89;100.00
77770;BME280;66961;51.482;9.160;2024-02-15T02:34:33;99452.00;;;9.86;100.00
77770;BME280;66961;51.482;9.160;2024-02-15T02:36:58;99454.00;;;9.84;100.00
77770;BME280;66961;51.482;9.160;2024-02-15T02:39:24;99457.13;;;9.87;100.00
77770;BME280;66961;51.482;9.160;2024-02-15T02:41:49;99450.34;;;9.85;100.00
77770;BME280;66961;51.482;9.160;2024-02-15T02:44:14;99458.28;;;9.85;100.00
77770;BME280;66961;51.482;9.160;2024-02-15T02:46:41;99458.63;;;9.82;100.00
77770;BME280;66961;51.482;9.160;2024-02-15T02:49:07;99461.25;;;9.82;100.00
77770;BME280;66961;51.482;9.160;2024-02-15T02:51:32;99463.09;;;9.81;100.00
77770;BME280;66961;51.482;9.160;2024-02-15T02:53:57;99451.66;;;9.81;100.00
77770;BME280;66961;51.482;9.160;2024-02-15T02:56:22;99460.44;;;9.73;100.00
77770;BME280;66961;51.482;9.160;2024-02-15T02:58:48;99447.53;;;9.70;100.00
77770;BME280;66961;51.482;9.160;2024-02-15T03:01:13;99449.00;;;9.65;100.00
77770;BME280;66961;51.482;9.160;2024-02-15T03:03:38;99448.69;;;9.59;100.00
77770;BME280;66961;51.482;9.160;2024-02-15T03:06:04;99445.69;;;9.54;100.00
77770;BME280;66961;51.482;9.160;2024-02-15T03:08:29;99445.19;;;9.51;100.00
77770;BME280;66961;51.482;9.160;2024-02-15T03:10:54;99441.88;;;9.49;100.00
77770;BME280;66961;51.482;9.160;2024-02-15T03:13:20;99446.81;;;9.44;100.00
77770;BME280;66961;51.482;9.160;2024-02-15T03:15:45;99444.84;;;9.38;100.00
77770;BME280;66961;51.482;9.160;2024-02-15T03:18:11;99446.00;;;9.35;100.00
77770;BME280;66961;51.482;9.160;2024-02-15T03:20:39;99444.38;;;9.34;100.00
77770;BME280;66961;51.482;9.160;2024-02-15T03:23:04;99451.31;;;9.35;100.00
77770;BME280;66961;51.482;9.160;2024-02-15T03:25:30;99443.00;;;9.38;100.00
77770;BME280;66961;51.482;9.160;2024-02-15T03:27:57;99441.69;;;9.42;100.00
77770;BME280;66961;51.482;9.160;2024-02-15T03:30:24;99443.03;;;9.46;100.00
77770;BME280;66961;51.482;9.160;2024-02-15T03:32:49;99443.69;;;9.48;100.00
77770;BME280;66961;51.482;9.160;2024-02-15T03:35:15;99449.97;;;9.47;100.00
77770;BME280;66961;51.482;9.160;2024-02-15T03:37:41;99444.84;;;9.46;100.00
77770;BME280;66961;51.482;9.160;2024-02-15T03:40:07;99458.59;;;9.49;100.00
77770;BME280;66961;51.482;9.160;2024-02-15T03:42:33;99453.13;;;9.51;100.00
77770;BME280;66961;51.482;9.160;2024-02-15T03:44:58;99453.63;;;9.54;100.00
77770;BME280;66961;51.482;9.160;2024-02-15T03:47:23;99459.75;;;9.55;100.00
77770;BME280;66961;51.482;9.160;2024-02-15T03:49:49;99454.28;;;9.56;100.00
77770;BME280;66961;51.482;9.160;2024-02-15T03:52:14;99454.47;;;9.55;100.00
77770;BME280;66961;51.482;9.160;2024-02-15T03:54:39;99458.59;;;9.57;100.00
77770;BME280;66961;51.482;9.160;2024-02-15T03:57:04;99450.97;;;9.54;100.00
77770;BME280;66961;51.482;9.160;2024-02-15T03:59:30;99452.47;;;9.57;100.00
77770;BME280;66961;51.482;9.160;2024-02-15T04:01:55;99448.34;;;9.54;100.00
77770;BME280;66961;51.482;9.160;2024-02-15T04:04:21;99448.66;;;9.51;100.00
77770;BME280;66961;51.482;9.160;2024-02-15T04:06:48;99450.16;;;9.54;100.00
77770;BME280;66961;51.482;9.160;2024-02-15T04:09:13;99446.69;;;9.53;100.00
77770;BME280;66961;51.482;9.160;2024-02-15T04:11:38;99446.53;;;9.55;100.00
77770;BME280;66961;51.482;9.160;2024-02-15T04:14:03;99441.56;;;9.52;100.00
77770;BME280;66961;51.482;9.160;2024-02-15T04:16:29;99446.84;;;9.60;100.00
77770;BME280;66961;51.482;9.160;2024-02-15T04:18:54;99445.38;;;9.66;100.00
77770;BME280;66961;51.482;9.160;2024-02-15T04:21:19;99451.66;;;9.73;100.00
77770;BME280;66961;51.482;9.160;2024-02-15T04:23:45;99459.13;;;9.77;100.00
77770;BME280;66961;51.482;9.160;2024-02-15T04:26:10;99449.84;;;9.81;100.00
77770;BME280;66961;51.482;9.160;2024-02-15T04:28:36;99458.28;;;9.85;100.00
77770;BME280;66961;51.482;9.160;2024-02-15T04:31:01;99457.94;;;9.88;100.00
77770;BME280;66961;51.482;9.160;2024-02-15T04:33:26;99457.31;;;9.86;100.00
77770;BME280;66961;51.482;9.160;2024-02-15T04:35:51;99468.34;;;9.89;100.00
77770;BME280;66961;51.482;9.160;2024-02-15T04:38:17;99465.53;;;9.91;100.00
77770;BME280;66961;51.482;9.160;2024-02-15T04:40:42;99455.78;;;9.91;100.00
77770;BME280;66961;51.482;9.160;2024-02-15T04:43:07;99466.38;;;9.91;100.00
77770;BME280;66961;51.482;9.160;2024-02-15T04:45:32;99469.34;;;9.88;100.00
77770;BME280;66961;51.482;9.160;2024-02-15T04:47:58;99465.72;;;9.89;100.00
77770;BME280;66961;51.482;9.160;2024-02-15T04:50:23;99464.25;;;9.87;100.00
77770;BME280;66961;51.482;9.160;2024-02-15T04:52:48;99462.91;;;9.91;100.00
77770;BME280;66961;51.482;9.160;2024-02-15T04:55:13;99464.72;;;9.90;100.00
77770;BME280;66961;51.482;9.160;2024-02-15T04:57:39;99461.06;;;9.91;100.00
77770;BME280;66961;51.482;9.160;2024-02-15T05:00:04;99460.91;;;9.93;100.00
77770;BME280;66961;51.482;9.160;2024-02-15T05:02:30;99463.06;;;9.89;100.00
77770;BME280;66961;51.482;9.160;2024-02-15T05:04:55;99452.84;;;9.86;100.00
77770;BME280;66961;51.482;9.160;2024-02-15T05:07:21;99466.91;;;9.87;100.00
77770;BME280;66961;51.482;9.160;2024-02-15T05:09:46;99458.94;;;9.87;100.00
77770;BME280;66961;51.482;9.160;2024-02-15T05:12:21;99461.59;;;9.87;100.00
77770;BME280;66961;51.482;9.160;2024-02-15T05:14:47;99462.59;;;9.86;100.00
77770;BME280;66961;51.482;9.160;2024-02-15T05:17:12;99445.38;;;9.82;100.00
77770;BME280;66961;51.482;9.160;2024-02-15T05:19:37;99458.47;;;9.83;100.00
77770;BME280;66961;51.482;9.160;2024-02-15T05:22:03;99452.50;;;9.81;100.00
77770;BME280;66961;51.482;9.160;2024-02-15T05:24:28;99455.81;;;9.83;100.00
77770;BME280;66961;51.482;9.160;2024-02-15T05:26:53;99451.34;;;9.84;100.00
77770;BME280;66961;51.482;9.160;2024-02-15T05:29:18;99459.59;;;9.89;100.00
77770;BME280;66961;51.482;9.160;2024-02-15T05:31:44;99463.88;;;9.90;100.00
77770;BME280;66961;51.482;9.160;2024-02-15T05:34:10;99458.25;;;9.93;100.00
77770;BME280;66961;51.482;9.160;2024-02-15T05:36:35;99460.91;;;9.93;100.00
77770;BME280;66961;51.482;9.160;2024-02-15T05:39:01;99474.66;;;9.96;100.00
77770;BME280;66961;51.482;9.160;2024-02-15T05:41:26;99474.31;;;10.00;100.00
77770;BME280;66961;51.482;9.160;2024-02-15T05:43:51;99473.16;;;10.02;100.00
77770;BME280;66961;51.482;9.160;2024-02-15T05:46:16;99472.31;;;10.02;100.00
77770;BME280;66961;51.482;9.160;2024-02-15T05:48:42;99470.50;;;10.02;100.00
77770;BME280;66961;51.482;9.160;2024-02-15T05:51:07;99468.69;;;10.03;100.00
77770;BME280;66961;51.482;9.160;2024-02-15T05:53:34;99450.31;;;10.01;100.00
77770;BME280;66961;51.482;9.160;2024-02-15T05:55:59;99456.09;;;9.96;100.00
77770;BME280;66961;51.482;9.160;2024-02-15T05:58:25;99450.00;;;9.96;100.00
77770;BME280;66961;51.482;9.160;2024-02-15T06:00:50;99450.97;;;9.95;100.00
77770;BME280;66961;51.482;9.160;2024-02-15T06:03:16;99449.31;;;9.94;100.00
77770;BME280;66961;51.482;9.160;2024-02-15T06:05:42;99451.97;;;9.94;100.00
77770;BME280;66961;51.482;9.160;2024-02-15T06:08:07;99445.03;;;9.93;100.00
77770;BME280;66961;51.482;9.160;2024-02-15T06:10:33;99445.03;;;9.93;100.00
77770;BME280;66961;51.482;9.160;2024-02-15T06:12:58;99442.03;;;9.96;100.00
77770;BME280;66961;51.482;9.160;2024-02-15T06:15:23;99442.38;;;9.93;100.00
77770;BME280;66961;51.482;9.160;2024-02-15T06:17:49;99434.44;;;9.93;100.00
77770;BME280;66961;51.482;9.160;2024-02-15T06:20:15;99438.41;;;9.97;100.00
77770;BME280;66961;51.482;9.160;2024-02-15T06:22:40;99440.06;;;9.98;100.00
77770;BME280;66961;51.482;9.160;2024-02-15T06:25:06;99440.72;;;10.00;100.00
77770;BME280;66961;51.482;9.160;2024-02-15T06:27:31;99439.91;;;10.00;100.00
77770;BME280;66961;51.482;9.160;2024-02-15T06:29:57;99444.84;;;10.03;100.00
77770;BME280;66961;51.482;9.160;2024-02-15T06:32:22;99449.00;;;10.05;100.00
77770;BME280;66961;51.482;9.160;2024-02-15T06:34:47;99450.81;;;10.05;100.00
77770;BME280;66961;51.482;9.160;2024-02-15T06:37:36;99453.78;;;10.02;100.00
77770;BME280;66961;51.482;9.160;2024-02-15T06:40:01;99452.31;;;9.99;100.00
77770;BME280;66961;51.482;9.160;2024-02-15T06:42:26;99439.72;;;10.01;100.00
77770;BME280;66961;51.482;9.160;2024-02-15T06:44:52;99447.84;;;10.00;100.00
77770;BME280;66961;51.482;9.160;2024-02-15T06:47:17;99447.00;;;9.99;100.00
77770;BME280;66961;51.482;9.160;2024-02-15T06:49:42;99445.84;;;10.02;100.00
77770;BME280;66961;51.482;9.160;2024-02-15T06:52:08;99447.50;;;10.03;100.00
77770;BME280;66961;51.482;9.160;2024-02-15T06:54:38;99440.56;;;10.02;100.00
77770;BME280;66961;51.482;9.160;2024-02-15T06:57:04;99444.69;;;10.04;100.00
77770;BME280;66961;51.482;9.160;2024-02-15T06:59:30;99442.38;;;10.09;100.00
77770;BME280;66961;51.482;9.160;2024-02-15T07:01:55;99441.72;;;10.07;100.00
77770;BME280;66961;51.482;9.160;2024-02-15T07:04:20;99443.19;;;10.10;100.00
77770;BME280;66961;51.482;9.160;2024-02-15T07:06:46;99449.00;;;10.13;100.00
77770;BME280;66961;51.482;9.160;2024-02-15T07:09:11;99442.69;;;10.14;100.00
77770;BME280;66961;51.482;9.160;2024-02-15T07:11:36;99439.72;;;10.17;100.00
77770;BME280;66961;51.482;9.160;2024-02-15T07:14:02;99447.50;;;10.19;100.00
77770;BME280;66961;51.482;9.160;2024-02-15T07:16:27;99450.00;;;10.20;100.00
77770;BME280;66961;51.482;9.160;2024-02-15T07:18:53;99445.69;;;10.19;100.00
77770;BME280;66961;51.482;9.160;2024-02-15T07:21:20;99453.81;;;10.26;100.00
77770;BME280;66961;51.482;9.160;2024-02-15T07:23:45;99456.13;;;10.29;100.00
77770;BME280;66961;51.482;9.160;2024-02-15T07:26:11;99456.78;;;10.31;100.00
77770;BME280;66961;51.482;9.160;2024-02-15T07:28:36;99451.66;;;10.30;100.00
77770;BME280;66961;51.482;9.160;2024-02-15T07:31:01;99450.31;;;10.34;100.00
77770;BME280;66961;51.482;9.160;2024-02-15T07:33:26;99451.31;;;10.33;100.00
77770;BME280;66961;51.482;9.160;2024-02-15T07:35:52;99451.81;;;10.36;100.00
77770;BME280;66961;51.482;9.160;2024-02-15T07:38:17;99449.81;;;10.38;100.00
77770;BME280;66961;51.482;9.160;2024-02-15T07:40:42;99444.03;;;10.35;100.00
77770;BME280;66961;51.482;9.160;2024-02-15T07:43:08;99446.84;;;10.33;100.00
77770;BME280;66961;51.482;9.160;2024-02-15T07:45:33;99442.72;;;10.31;100.00
77770;BME280;66961;51.482;9.160;2024-02-15T07:47:58;99443.53;;;10.31;100.00
77770;BME280;66961;51.482;9.160;2024-02-15T07:50:24;99441.22;;;10.28;100.00
77770;BME280;66961;51.482;9.160;2024-02-15T07:52:49;99441.22;;;10.28;100.00
77770;BME280;66961;51.482;9.160;2024-02-15T07:55:14;99446.69;;;10.35;100.00
77770;BME280;66961;51.482;9.160;2024-02-15T07:57:40;99443.69;;;10.38;100.00
77770;BME280;66961;51.482;9.160;2024-02-15T08:00:06;99442.88;;;10.37;100.00
77770;BME280;66961;51.482;9.160;2024-02-15T08:02:32;99446.34;;;10.38;100.00
77770;BME280;66961;51.482;9.160;2024-02-15T08:04:57;99446.47;;;10.44;100.00
77770;BME280;66961;51.482;9.160;2024-02-15T08:07:22;99441.13;;;10.52;100.00
77770;BME280;66961;51.482;9.160;2024-02-15T08:09:48;99441.63;;;10.56;100.00
77770;BME280;66961;51.482;9.160;2024-02-15T08:12:13;99446.59;;;10.59;100.00
77770;BME280;66961;51.482;9.160;2024-02-15T08:14:38;99445.91;;;10.65;100.00
77770;BME280;66961;51.482;9.160;2024-02-15T08:17:03;99447.88;;;10.71;100.00
77770;BME280;66961;51.482;9.160;2024-02-15T08:19:29;99428.66;;;10.69;100.00
77770;BME280;66961;51.482;9.160;2024-02-15T08:21:54;99432.63;;;10.73;100.00
77770;BME280;66961;51.482;9.160;2024-02-15T08:24:19;99441.06;;;10.77;100.00
77770;BME280;66961;51.482;9.160;2024-02-15T08:26:44;99427.94;;;10.83;100.00
77770;BME280;66961;51.482;9.160;2024-02-15T08:29:11;99430.25;;;10.86;100.00
77770;BME280;66961;51.482;9.160;2024-02-15T08:31:36;99432.41;;;10.91;100.00
77770;BME280;66961;51.482;9.160;2024-02-15T08:34:02;99432.56;;;10.89;100.00
77770;BME280;66961;51.482;9.160;2024-02-15T08:36:27;99434.22;;;10.90;100.00
77770;BME280;66961;51.482;9.160;2024-02-15T08:38:54;99430.56;;;10.91;100.00
77770;BME280;66961;51.482;9.160;2024-02-15T08:41:19;99434.00;;;10.92;100.00
77770;BME280;66961;51.482;9.160;2024-02-15T08:43:46;99430.25;;;10.86;100.00
77770;BME280;66961;51.482;9.160;2024-02-15T08:46:11;99425.44;;;10.90;100.00
77770;BME280;66961;51.482;9.160;2024-02-15T08:48:37;99428.25;;;10.88;100.00
77770;BME280;66961;51.482;9.160;2024-02-15T08:51:02;99425.06;;;10.93;100.00
77770;BME280;66961;51.482;9.160;2024-02-15T08:53:27;99428.53;;;10.93;100.00
77770;BME280;66961;51.482;9.160;2024-02-15T08:55:53;99418.59;;;10.95;100.00
77770;BME280;66961;51.482;9.160;2024-02-15T08:58:19;99419.75;;;10.93;100.00
77770;BME280;66961;51.482;9.160;2024-02-15T09:00:44;99425.53;;;10.97;100.00
77770;BME280;66961;51.482;9.160;2024-02-15T09:03:13;99436.94;;;11.05;100.00
77770;BME280;66961;51.482;9.160;2024-02-15T09:05:39;99433.13;;;11.08;100.00
77770;BME280;66961;51.482;9.160;2024-02-15T09:08:04;99432.81;;;11.03;100.00
77770;BME280;66961;51.482;9.160;2024-02-15T09:10:30;99433.81;;;11.02;100.00
77770;BME280;66961;51.482;9.160;2024-02-15T09:12:55;99429.50;;;11.01;100.00
77770;BME280;66961;51.482;9.160;2024-02-15T09:15:20;99439.59;;;11.05;100.00
77770;BME280;66961;51.482;9.160;2024-02-15T09:17:46;99440.47;;;10.98;100.00
77770;BME280;66961;51.482;9.160;2024-02-15T09:20:12;99434.31;;;10.97;100.00
77770;BME280;66961;51.482;9.160;2024-02-15T09:22:38;99434.56;;;10.87;100.00
77770;BME280;66961;51.482;9.160;2024-02-15T09:25:03;99429.78;;;10.83;100.00
77770;BME280;66961;51.482;9.160;2024-02-15T09:27:29;99427.81;;;10.77;100.00
77770;BME280;66961;51.482;9.160;2024-02-15T09:29:54;99421.03;;;10.74;100.00
77770;BME280;66961;51.482;9.160;2024-02-15T09:32:19;99416.38;;;10.76;100.00
77770;BME280;66961;51.482;9.160;2024-02-15T09:34:44;99414.38;;;10.78;100.00
77770;BME280;66961;51.482;9.160;2024-02-15T09:37:10;99411.91;;;10.77;100.00
77770;BME280;66961;51.482;9.160;2024-02-15T09:39:36;99408.78;;;10.73;100.00
77770;BME280;66961;51.482;9.160;2024-02-15T09:42:02;99405.13;;;10.74;100.00
77770;BME280;66961;51.482;9.160;2024-02-15T09:44:27;99392.22;;;10.71;100.00
77770;BME280;66961;51.482;9.160;2024-02-15T09:47:05;99404.13;;;10.75;100.00
77770;BME280;66961;51.482;9.160;2024-02-15T09:49:35;99401.47;;;10.75;100.00
77770;BME280;66961;51.482;9.160;2024-02-15T09:52:03;99413.06;;;10.74;100.00
77770;BME280;66961;51.482;9.160;2024-02-15T09:54:30;99415.72;;;10.74;100.00
77770;BME280;66961;51.482;9.160;2024-02-15T09:56:56;99416.03;;;10.79;100.00
77770;BME280;66961;51.482;9.160;2024-02-15T09:59:26;99422.81;;;10.82;100.00
77770;BME280;66961;51.482;9.160;2024-02-15T10:01:52;99414.69;;;10.83;100.00
77770;BME280;66961;51.482;9.160;2024-02-15T10:04:21;99426.44;;;10.89;100.00
77770;BME280;66961;51.482;9.160;2024-02-15T10:06:46;99425.06;;;10.93;100.00
77770;BME280;66961;51.482;9.160;2024-02-15T10:09:28;99431.16;;;11.02;100.00
77770;BME280;66961;51.482;9.160;2024-02-15T10:11:54;99430.34;;;11.01;100.00
77770;BME280;66961;51.482;9.160;2024-02-15T10:14:20;99440.59;;;11.04;100.00
77770;BME280;66961;51.482;9.160;2024-02-15T10:16:45;99434.13;;;11.07;100.00
77770;BME280;66961;51.482;9.160;2024-02-15T10:19:10;99441.06;;;11.08;100.00
77770;BME280;66961;51.482;9.160;2024-02-15T10:21:36;99430.47;;;11.08;100.00
77770;BME280;66961;51.482;9.160;2024-02-15T10:24:08;99432.47;;;11.06;100.00
77770;BME280;66961;51.482;9.160;2024-02-15T10:26:34;99431.47;;;11.07;100.00
77770;BME280;66961;51.482;9.160;2024-02-15T10:29:10;99431.16;;;11.02;100.00
77770;BME280;66961;51.482;9.160;2024-02-15T10:31:36;99431.13;;;11.10;100.00
77770;BME280;66961;51.482;9.160;2024-02-15T10:34:04;99432.25;;;11.15;100.00
77770;BME280;66961;51.482;9.160;2024-02-15T10:36:30;99428.78;;;11.15;100.00
77770;BME280;66961;51.482;9.160;2024-02-15T10:39:13;99440.38;;;11.14;100.00
77770;BME280;66961;51.482;9.160;2024-02-15T10:41:38;99433.44;;;11.13;100.00
77770;BME280;66961;51.482;9.160;2024-02-15T10:44:04;99433.91;;;11.16;100.00
77770;BME280;66961;51.482;9.160;2024-02-15T10:46:30;99425.78;;;11.18;100.00
77770;BME280;66961;51.482;9.160;2024-02-15T10:48:55;99421.47;;;11.17;100.00
77770;BME280;66961;51.482;9.160;2024-02-15T10:51:21;99427.25;;;11.20;100.00
77770;BME280;66961;51.482;9.160;2024-02-15T10:53:57;99423.94;;;11.18;100.00
77770;BME280;66961;51.482;9.160;2024-02-15T10:56:27;99425.06;;;11.24;100.00
77770;BME280;66961;51.482;9.160;2024-02-15T10:59:16;99418.94;;;11.23;100.00
77770;BME280;66961;51.482;9.160;2024-02-15T11:01:42;99417.13;;;11.24;100.00
77770;BME280;66961;51.482;9.160;2024-02-15T11:04:08;99407.81;;;11.28;100.00
77770;BME280;66961;51.482;9.160;2024-02-15T11:06:38;99414.47;;;11.24;100.00
77770;BME280;66961;51.482;9.160;2024-02-15T11:09:04;99407.63;;;11.30;100.00
77770;BME280;66961;51.482;9.160;2024-02-15T11:11:30;99415.38;;;11.39;100.00
77770;BME280;66961;51.482;9.160;2024-02-15T11:14:25;99409.06;;;11.40;100.00
77770;BME280;66961;51.482;9.160;2024-02-15T11:16:50;99399.91;;;11.43;100.00
77770;BME280;66961;51.482;9.160;2024-02-15T11:22:09;99410.75;;;11.56;100.00
77770;BME280;66961;51.482;9.160;2024-02-15T11:24:36;99412.22;;;11.58;100.00
77770;BME280;66961;51.482;9.160;2024-02-15T11:27:06;99408.38;;;11.61;100.00
77770;BME280;66961;51.482;9.160;2024-02-15T11:29:51;99408.38;;;11.61;100.00
77770;BME280;66961;51.482;9.160;2024-02-15T11:35:07;99425.19;;;11.53;100.00
77770;BME280;66961;51.482;9.160;2024-02-15T11:40:16;99418.19;;;11.38;100.00
77770;BME280;66961;51.482;9.160;2024-02-15T11:42:42;99416.72;;;11.35;100.00
77770;BME280;66961;51.482;9.160;2024-02-15T11:45:08;99403.84;;;11.24;100.00
77770;BME280;66961;51.482;9.160;2024-02-15T11:47:37;99411.34;;;11.20;100.00
77770;BME280;66961;51.482;9.160;2024-02-15T11:50:03;99404.91;;;11.15;100.00
77770;BME280;66961;51.482;9.160;2024-02-15T11:52:28;99406.06;;;11.12;100.00
77770;BME280;66961;51.482;9.160;2024-02-15T11:54:54;99404.75;;;11.08;100.00
77770;BME280;66961;51.482;9.160;2024-02-15T11:57:19;99399.47;;;11.08;100.00
77770;BME280;66961;51.482;9.160;2024-02-15T11:59:44;99398.16;;;11.04;100.00
77770;BME280;66961;51.482;9.160;2024-02-15T12:02:09;99400.13;;;11.10;100.00
77770;BME280;66961;51.482;9.160;2024-02-15T12:04:35;99399.41;;;11.16;100.00
77770;BME280;66961;51.482;9.160;2024-02-15T12:07:00;99393.94;;;11.18;100.00
77770;BME280;66961;51.482;9.160;2024-02-15T12:09:25;99395.06;;;11.23;100.00
77770;BME280;66961;51.482;9.160;2024-02-15T12:11:58;99395.25;;;11.22;100.00
77770;BME280;66961;51.482;9.160;2024-02-15T12:14:23;99403.50;;;11.27;100.00
77770;BME280;66961;51.482;9.160;2024-02-15T12:17:06;99393.06;;;11.25;100.00
77770;BME280;66961;51.482;9.160;2024-02-15T12:19:31;99378.31;;;11.23;100.00
77770;BME280;66961;51.482;9.160;2024-02-15T12:21:57;99389.41;;;11.26;100.00
77770;BME280;66961;51.482;9.160;2024-02-15T12:24:24;99382.44;;;11.25;100.00
77770;BME280;66961;51.482;9.160;2024-02-15T12:26:49;99381.94;;;11.30;100.00
77770;BME280;66961;51.482;9.160;2024-02-15T12:29:18;99381.44;;;11.26;100.00
77770;BME280;66961;51.482;9.160;2024-02-15T12:31:43;99381.63;;;11.25;100.00
77770;BME280;66961;51.482;9.160;2024-02-15T12:34:09;99382.94;;;11.29;100.00
77770;BME280;66961;51.482;9.160;2024-02-15T12:36:34;99388.22;;;11.29;100.00
77770;BME280;66961;51.482;9.160;2024-02-15T12:39:01;99371.97;;;11.32;100.00
77770;BME280;66961;51.482;9.160;2024-02-15T12:41:26;99371.31;;;11.30;100.00
77770;BME280;66961;51.482;9.160;2024-02-15T12:43:52;99370.31;;;11.31;100.00
77770;BME280;66961;51.482;9.160;2024-02-15T12:46:19;99365.81;;;11.32;100.00
77770;BME280;66961;51.482;9.160;2024-02-15T12:48:44;99362.19;;;11.33;100.00
77770;BME280;66961;51.482;9.160;2024-02-15T12:51:16;99365.94;;;11.38;100.00
77770;BME280;66961;51.482;9.160;2024-02-15T12:53:42;99364.22;;;11.45;100.00
77770;BME280;66961;51.482;9.160;2024-02-15T12:56:07;99361.03;;;11.50;100.00
77770;BME280;66961;51.482;9.160;2024-02-15T12:58:32;99345.44;;;11.47;100.00